createdAt,value
2023-01-18T00:00:56.336Z,986.74
2023-01-18T00:01:56.390Z,986.74
2023-01-18T00:02:56.729Z,986.70
2023-01-18T00:03:56.310Z,986.65
2023-01-18T00:04:56.343Z,986.66
2023-01-18T00:05:56.295Z,986.60
2023-01-18T00:06:56.292Z,986.62
2023-01-18T00:07:56.283Z,986.63
2023-01-18T00:08:56.284Z,986.58
2023-01-18T00:09:56.269Z,986.59
2023-01-18T00:10:56.267Z,986.60
2023-01-18T00:11:56.258Z,986.55
2023-01-18T00:12:56.802Z,986.60
2023-01-18T00:13:56.245Z,986.51
2023-01-18T00:14:56.239Z,986.50
2023-01-18T00:15:56.259Z,986.44
2023-01-18T00:16:56.225Z,986.39
2023-01-18T00:17:56.251Z,986.43
2023-01-18T00:18:56.239Z,986.45
2023-01-18T00:19:56.205Z,986.46
2023-01-18T00:20:56.200Z,986.46
2023-01-18T00:21:56.193Z,986.44
2023-01-18T00:22:56.615Z,986.45
2023-01-18T00:23:56.180Z,986.45
2023-01-18T00:24:56.173Z,986.47
2023-01-18T00:25:56.169Z,986.43
2023-01-18T00:26:56.163Z,986.48
2023-01-18T00:27:56.155Z,986.50
2023-01-18T00:28:56.152Z,986.51
2023-01-18T00:29:56.137Z,986.46
2023-01-18T00:30:56.133Z,986.48
2023-01-18T00:31:56.186Z,986.46
2023-01-18T00:32:56.658Z,986.48
2023-01-18T00:33:56.148Z,986.47
2023-01-18T00:34:56.110Z,986.50
2023-01-18T00:35:56.104Z,986.52
2023-01-18T00:36:56.097Z,986.51
2023-01-18T00:37:56.110Z,986.51
2023-01-18T00:38:56.088Z,986.51
2023-01-18T00:39:56.076Z,986.47
2023-01-18T00:40:56.075Z,986.49
2023-01-18T00:41:56.057Z,986.47
2023-01-18T00:42:56.564Z,986.44
2023-01-18T00:43:56.057Z,986.44
2023-01-18T00:44:56.042Z,986.42
2023-01-18T00:45:56.089Z,986.41
2023-01-18T00:46:56.070Z,986.38
2023-01-18T00:47:56.023Z,986.39
2023-01-18T00:48:56.018Z,986.39
2023-01-18T00:49:56.044Z,986.33
2023-01-18T00:50:56.003Z,986.41
2023-01-18T00:51:58.697Z,986.42
2023-01-18T00:52:56.295Z,986.42
2023-01-18T00:53:55.998Z,986.46
2023-01-18T00:54:55.977Z,986.41
2023-01-18T00:55:55.968Z,986.46
2023-01-18T00:56:55.966Z,986.47
2023-01-18T00:57:55.959Z,986.46
2023-01-18T00:58:55.949Z,986.48
2023-01-18T00:59:55.940Z,986.55
2023-01-18T01:00:56.109Z,986.59
2023-01-18T01:01:56.128Z,986.56
2023-01-18T01:02:56.657Z,986.54
2023-01-18T01:03:55.916Z,986.60
2023-01-18T01:04:55.915Z,986.63
2023-01-18T01:05:55.931Z,986.57
2023-01-18T01:06:55.903Z,986.62
2023-01-18T01:07:55.893Z,986.61
2023-01-18T01:08:55.886Z,986.61
2023-01-18T01:09:55.876Z,986.67
2023-01-18T01:10:55.875Z,986.65
2023-01-18T01:11:55.862Z,986.70
2023-01-18T01:12:56.312Z,986.69
2023-01-18T01:13:55.866Z,986.73
2023-01-18T01:14:55.856Z,986.75
2023-01-18T01:15:55.841Z,986.84
2023-01-18T01:16:55.886Z,986.88
2023-01-18T01:17:55.822Z,986.86
2023-01-18T01:18:55.822Z,986.92
2023-01-18T01:19:55.820Z,986.92
2023-01-18T01:20:55.805Z,986.90
2023-01-18T01:21:55.820Z,986.96
2023-01-18T01:22:56.287Z,986.98
2023-01-18T01:23:55.799Z,987.02
2023-01-18T01:24:55.784Z,987.03
2023-01-18T01:25:55.790Z,987.02
2023-01-18T01:26:55.776Z,987.05
2023-01-18T01:27:55.761Z,987.06
2023-01-18T01:28:55.773Z,987.01
2023-01-18T01:29:55.747Z,987.03
2023-01-18T01:30:55.813Z,987.08
2023-01-18T01:31:55.736Z,987.12
2023-01-18T01:32:56.113Z,987.10
2023-01-18T01:33:55.722Z,987.12
2023-01-18T01:34:55.725Z,987.12
2023-01-18T01:35:55.714Z,987.16
2023-01-18T01:36:55.703Z,987.13
2023-01-18T01:37:55.721Z,987.14
2023-01-18T01:38:55.695Z,987.19
2023-01-18T01:39:55.686Z,987.20
2023-01-18T01:40:55.674Z,987.25
2023-01-18T01:41:55.670Z,987.25
2023-01-18T01:42:56.017Z,987.25
2023-01-18T01:43:55.661Z,987.34
2023-01-18T01:44:55.650Z,987.26
2023-01-18T01:45:55.709Z,987.28
2023-01-18T01:46:55.638Z,987.27
2023-01-18T01:47:55.631Z,987.31
2023-01-18T01:48:55.623Z,987.34
2023-01-18T01:49:55.622Z,987.41
2023-01-18T01:50:55.616Z,987.38
2023-01-18T01:51:55.607Z,987.38
2023-01-18T01:52:56.002Z,987.37
2023-01-18T01:53:55.624Z,987.40
2023-01-18T01:54:55.593Z,987.40
2023-01-18T01:55:55.580Z,987.39
2023-01-18T01:56:55.576Z,987.38
2023-01-18T01:57:55.627Z,987.38
2023-01-18T01:58:55.571Z,987.40
2023-01-18T01:59:55.555Z,987.41
2023-01-18T02:00:55.637Z,987.42
2023-01-18T02:01:55.650Z,987.43
2023-01-18T02:02:55.949Z,987.41
2023-01-18T02:03:55.532Z,987.41
2023-01-18T02:04:55.533Z,987.38
2023-01-18T02:05:55.530Z,987.39
2023-01-18T02:06:55.505Z,987.38
2023-01-18T02:07:55.503Z,987.39
2023-01-18T02:08:55.492Z,987.37
2023-01-18T02:09:55.519Z,987.33
2023-01-18T02:10:55.481Z,987.37
2023-01-18T02:11:55.485Z,987.36
2023-01-18T02:12:55.791Z,987.35
2023-01-18T02:13:55.466Z,987.33
2023-01-18T02:14:55.458Z,987.32
2023-01-18T02:15:55.454Z,987.31
2023-01-18T02:16:55.476Z,987.27
2023-01-18T02:17:55.446Z,987.30
2023-01-18T02:18:55.431Z,987.33
2023-01-18T02:19:55.427Z,987.38
2023-01-18T02:20:55.415Z,987.37
2023-01-18T02:21:55.418Z,987.40
2023-01-18T02:22:55.657Z,987.36
2023-01-18T02:23:55.404Z,987.30
2023-01-18T02:24:57.417Z,987.27
2023-01-18T02:25:55.408Z,987.21
2023-01-18T02:26:55.380Z,987.19
2023-01-18T02:27:55.373Z,987.19
2023-01-18T02:28:55.363Z,987.20
2023-01-18T02:29:55.373Z,987.22
2023-01-18T02:30:55.411Z,987.24
2023-01-18T02:31:55.353Z,987.31
2023-01-18T02:32:55.910Z,987.40
2023-01-18T02:33:55.335Z,987.40
2023-01-18T02:34:55.327Z,987.46
2023-01-18T02:35:55.331Z,987.45
2023-01-18T02:36:55.321Z,987.41
2023-01-18T02:37:55.313Z,987.43
2023-01-18T02:38:55.307Z,987.30
2023-01-18T02:39:55.299Z,987.37
2023-01-18T02:40:55.288Z,987.37
2023-01-18T02:41:55.306Z,987.43
2023-01-18T02:42:55.701Z,987.48
2023-01-18T02:43:55.272Z,987.47
2023-01-18T02:44:55.265Z,987.51
2023-01-18T02:45:55.308Z,987.50
2023-01-18T02:46:55.250Z,987.51
2023-01-18T02:47:55.247Z,987.49
2023-01-18T02:48:55.240Z,987.51
2023-01-18T02:49:55.254Z,987.52
2023-01-18T02:50:55.226Z,987.51
2023-01-18T02:51:55.229Z,987.51
2023-01-18T02:52:55.513Z,987.55
2023-01-18T02:53:55.210Z,987.49
2023-01-18T02:54:55.196Z,987.55
2023-01-18T02:55:55.194Z,987.54
2023-01-18T02:56:55.188Z,987.51
2023-01-18T02:57:55.208Z,987.53
2023-01-18T02:58:55.171Z,987.52
2023-01-18T02:59:55.174Z,987.50
2023-01-18T03:00:55.208Z,987.56
2023-01-18T03:01:55.217Z,987.51
2023-01-18T03:02:55.500Z,987.53
2023-01-18T03:03:55.142Z,987.50
2023-01-18T03:04:55.131Z,987.46
2023-01-18T03:05:55.133Z,987.43
2023-01-18T03:06:55.118Z,987.41
2023-01-18T03:07:55.118Z,987.42
2023-01-18T03:08:55.113Z,987.44
2023-01-18T03:09:55.105Z,987.45
2023-01-18T03:10:55.092Z,987.45
2023-01-18T03:11:55.091Z,987.48
2023-01-18T03:12:55.284Z,987.51
2023-01-18T03:13:55.106Z,987.50
2023-01-18T03:14:55.079Z,987.52
2023-01-18T03:15:55.158Z,987.55
2023-01-18T03:16:55.053Z,987.58
2023-01-18T03:17:55.065Z,987.59
2023-01-18T03:18:55.046Z,987.55
2023-01-18T03:19:55.046Z,987.53
2023-01-18T03:20:55.029Z,987.48
2023-01-18T03:21:55.023Z,987.45
2023-01-18T03:22:55.441Z,987.39
2023-01-18T03:23:55.017Z,987.39
2023-01-18T03:24:55.004Z,987.43
2023-01-18T03:25:54.996Z,987.46
2023-01-18T03:26:55.089Z,987.45
2023-01-18T03:27:54.994Z,987.47
2023-01-18T03:28:54.977Z,987.48
2023-01-18T03:29:54.996Z,987.50
2023-01-18T03:30:55.019Z,987.48
2023-01-18T03:31:54.963Z,987.47
2023-01-18T03:32:55.297Z,987.48
2023-01-18T03:33:54.955Z,987.44
2023-01-18T03:34:54.938Z,987.49
2023-01-18T03:35:54.935Z,987.45
2023-01-18T03:36:54.925Z,987.46
2023-01-18T03:37:54.926Z,987.44
2023-01-18T03:38:54.923Z,987.44
2023-01-18T03:39:54.908Z,987.42
2023-01-18T03:40:54.903Z,987.44
2023-01-18T03:41:54.896Z,987.49
2023-01-18T03:42:55.184Z,987.48
2023-01-18T03:43:54.885Z,987.46
2023-01-18T03:44:54.879Z,987.46
2023-01-18T03:45:55.025Z,987.47
2023-01-18T03:46:54.866Z,987.45
2023-01-18T03:47:54.863Z,987.42
2023-01-18T03:48:54.847Z,987.39
2023-01-18T03:49:54.852Z,987.36
2023-01-18T03:50:54.838Z,987.43
2023-01-18T03:51:54.840Z,987.43
2023-01-18T03:52:55.277Z,987.42
2023-01-18T03:53:54.821Z,987.40
2023-01-18T03:54:54.810Z,987.44
2023-01-18T03:55:54.807Z,987.40
2023-01-18T03:56:54.810Z,987.46
2023-01-18T03:57:54.798Z,987.40
2023-01-18T03:58:54.781Z,987.41
2023-01-18T03:59:54.789Z,987.43
2023-01-18T04:00:54.844Z,987.44
2023-01-18T04:01:54.850Z,987.44
2023-01-18T04:02:54.922Z,987.41
2023-01-18T04:03:54.756Z,987.40
2023-01-18T04:04:55.295Z,987.42
2023-01-18T04:05:54.745Z,987.45
2023-01-18T04:06:54.733Z,987.45
2023-01-18T04:07:54.733Z,987.46
2023-01-18T04:08:54.725Z,987.47
2023-01-18T04:09:54.713Z,987.47
2023-01-18T04:10:54.715Z,987.48
2023-01-18T04:11:54.706Z,987.41
2023-01-18T04:12:54.697Z,987.46
2023-01-18T04:13:54.776Z,987.50
2023-01-18T04:14:54.681Z,987.45
2023-01-18T04:15:54.802Z,987.46
2023-01-18T04:16:54.668Z,987.49
2023-01-18T04:17:54.688Z,987.48
2023-01-18T04:18:54.655Z,987.44
2023-01-18T04:19:54.657Z,987.43
2023-01-18T04:20:54.645Z,987.45
2023-01-18T04:21:54.647Z,987.39
2023-01-18T04:22:54.642Z,987.45
2023-01-18T04:23:54.640Z,987.44
2023-01-18T04:24:54.621Z,987.47
2023-01-18T04:25:54.616Z,987.47
2023-01-18T04:26:54.610Z,987.50
2023-01-18T04:27:54.610Z,987.48
2023-01-18T04:28:54.595Z,987.47
2023-01-18T04:29:54.591Z,987.47
2023-01-18T04:30:54.657Z,987.43
2023-01-18T04:31:54.575Z,987.41
2023-01-18T04:32:54.570Z,987.42
2023-01-18T04:33:54.594Z,987.39
2023-01-18T04:34:54.567Z,987.40
2023-01-18T04:35:54.558Z,987.43
2023-01-18T04:36:54.541Z,987.46
2023-01-18T04:37:54.542Z,987.50
2023-01-18T04:38:54.546Z,987.51
2023-01-18T04:39:54.531Z,987.50
2023-01-18T04:40:54.518Z,987.56
2023-01-18T04:41:57.013Z,987.56
2023-01-18T04:42:54.527Z,987.50
2023-01-18T04:43:54.504Z,987.52
2023-01-18T04:44:54.503Z,987.51
2023-01-18T04:45:54.489Z,987.50
2023-01-18T04:46:54.557Z,987.53
2023-01-18T04:47:54.480Z,987.51
2023-01-18T04:48:54.478Z,987.53
2023-01-18T04:49:54.489Z,987.52
2023-01-18T04:50:54.455Z,987.53
2023-01-18T04:51:54.454Z,987.56
2023-01-18T04:52:54.449Z,987.54
2023-01-18T04:53:54.442Z,987.57
2023-01-18T04:54:54.429Z,987.58
2023-01-18T04:55:54.429Z,987.56
2023-01-18T04:56:54.415Z,987.57
2023-01-18T04:57:54.411Z,987.56
2023-01-18T04:58:54.409Z,987.57
2023-01-18T04:59:54.402Z,987.51
2023-01-18T05:00:54.582Z,987.49
2023-01-18T05:01:54.387Z,987.52
2023-01-18T05:02:36.620Z,987.55
2023-01-18T05:03:36.584Z,987.51
2023-01-18T05:04:36.589Z,987.53
2023-01-18T05:05:36.600Z,987.60
2023-01-18T05:06:36.564Z,987.63
2023-01-18T05:07:36.558Z,987.65
2023-01-18T05:08:36.553Z,987.67
2023-01-18T05:09:36.561Z,987.67
2023-01-18T05:10:36.542Z,987.69
2023-01-18T05:11:36.542Z,987.71
2023-01-18T05:12:36.527Z,987.70
2023-01-18T05:13:36.518Z,987.72
2023-01-18T05:14:36.522Z,987.71
2023-01-18T05:15:36.509Z,987.68
2023-01-18T05:16:36.576Z,987.69
2023-01-18T05:17:36.493Z,987.70
2023-01-18T05:18:36.485Z,987.72
2023-01-18T05:19:36.488Z,987.71
2023-01-18T05:20:36.476Z,987.74
2023-01-18T05:21:36.498Z,987.71
2023-01-18T05:22:36.470Z,987.73
2023-01-18T05:23:36.459Z,987.75
2023-01-18T05:24:36.471Z,987.75
2023-01-18T05:25:36.446Z,987.77
2023-01-18T05:26:36.449Z,987.75
2023-01-18T05:27:36.432Z,987.75
2023-01-18T05:28:36.435Z,987.77
2023-01-18T05:29:36.421Z,987.79
2023-01-18T05:30:36.416Z,987.83
2023-01-18T05:31:36.450Z,987.80
2023-01-18T05:32:36.411Z,987.83
2023-01-18T05:33:36.395Z,987.79
2023-01-18T05:34:36.400Z,987.82
2023-01-18T05:35:36.384Z,987.83
2023-01-18T05:36:36.382Z,987.91
2023-01-18T05:37:36.396Z,987.88
2023-01-18T05:38:36.367Z,987.90
2023-01-18T05:39:36.356Z,987.92
2023-01-18T05:40:36.355Z,987.92
2023-01-18T05:41:36.346Z,987.88
2023-01-18T05:42:36.342Z,987.88
2023-01-18T05:43:36.334Z,987.95
2023-01-18T05:44:36.330Z,987.91
2023-01-18T05:45:36.369Z,987.96
2023-01-18T05:46:36.328Z,987.94
2023-01-18T05:47:36.314Z,987.92
2023-01-18T05:48:36.310Z,987.91
2023-01-18T05:49:36.297Z,987.91
2023-01-18T05:50:36.295Z,987.94
2023-01-18T05:51:36.295Z,987.91
2023-01-18T05:52:36.280Z,987.89
2023-01-18T05:53:36.291Z,987.91
2023-01-18T05:54:36.270Z,987.90
2023-01-18T05:55:36.258Z,987.88
2023-01-18T05:56:36.260Z,987.89
2023-01-18T05:57:36.246Z,987.92
2023-01-18T05:58:36.256Z,987.99
2023-01-18T05:59:36.236Z,988.04
2023-01-18T06:00:36.230Z,988.05
2023-01-18T06:01:36.279Z,988.09
2023-01-18T06:02:36.220Z,988.07
2023-01-18T06:03:36.214Z,988.16
2023-01-18T06:04:36.299Z,988.09
2023-01-18T06:05:36.218Z,988.12
2023-01-18T06:06:36.196Z,988.11
2023-01-18T06:07:36.198Z,988.10
2023-01-18T06:08:36.190Z,988.15
2023-01-18T06:09:36.198Z,988.15
2023-01-18T06:10:36.177Z,988.17
2023-01-18T06:11:36.165Z,988.15
2023-01-18T06:12:36.159Z,988.19
2023-01-18T06:13:36.158Z,988.18
2023-01-18T06:14:36.150Z,988.21
2023-01-18T06:15:36.141Z,988.25
2023-01-18T06:16:36.205Z,988.19
2023-01-18T06:17:36.132Z,988.23
2023-01-18T06:18:36.127Z,988.24
2023-01-18T06:19:36.117Z,988.29
2023-01-18T06:20:36.130Z,988.28
2023-01-18T06:21:36.104Z,988.30
2023-01-18T06:22:36.104Z,988.31
2023-01-18T06:23:36.093Z,988.36
2023-01-18T06:24:36.092Z,988.35
2023-01-18T06:25:36.116Z,988.37
2023-01-18T06:26:36.079Z,988.36
2023-01-18T06:27:36.074Z,988.36
2023-01-18T06:28:36.098Z,988.34
2023-01-18T06:29:36.060Z,988.38
2023-01-18T06:30:36.065Z,988.39
2023-01-18T06:31:36.067Z,988.39
2023-01-18T06:32:36.042Z,988.38
2023-01-18T06:33:36.035Z,988.39
2023-01-18T06:34:36.039Z,988.41
2023-01-18T06:35:36.025Z,988.40
2023-01-18T06:36:36.031Z,988.40
2023-01-18T06:37:36.011Z,988.43
2023-01-18T06:38:36.011Z,988.41
2023-01-18T06:39:35.998Z,988.42
2023-01-18T06:40:36.000Z,988.42
2023-01-18T06:41:36.017Z,988.41
2023-01-18T06:42:35.983Z,988.47
2023-01-18T06:43:35.973Z,988.43
2023-01-18T06:44:35.969Z,988.50
2023-01-18T06:45:35.982Z,988.47
2023-01-18T06:46:35.966Z,988.46
2023-01-18T06:47:35.954Z,988.47
2023-01-18T06:48:35.953Z,988.49
2023-01-18T06:49:35.941Z,988.49
2023-01-18T06:50:35.961Z,988.53
2023-01-18T06:51:35.932Z,988.51
2023-01-18T06:52:35.925Z,988.55
2023-01-18T06:53:37.885Z,988.53
2023-01-18T06:54:35.917Z,988.55
2023-01-18T06:55:35.910Z,988.57
2023-01-18T06:56:35.905Z,988.58
2023-01-18T06:57:35.921Z,988.60
2023-01-18T06:58:35.897Z,988.56
2023-01-18T06:59:35.880Z,988.63
2023-01-18T07:00:35.882Z,988.62
2023-01-18T07:01:35.951Z,988.66
2023-01-18T07:02:35.875Z,988.66
2023-01-18T07:03:35.860Z,988.63
2023-01-18T07:04:35.914Z,988.68
2023-01-18T07:05:35.845Z,988.63
2023-01-18T07:06:35.843Z,988.64
2023-01-18T07:07:35.832Z,988.65
2023-01-18T07:08:35.847Z,988.69
2023-01-18T07:09:35.823Z,988.70
2023-01-18T07:10:35.825Z,988.76
2023-01-18T07:11:35.811Z,988.80
2023-01-18T07:12:35.809Z,988.83
2023-01-18T07:13:35.823Z,988.85
2023-01-18T07:14:35.807Z,988.83
2023-01-18T07:15:35.791Z,988.89
2023-01-18T07:16:35.814Z,988.88
2023-01-18T07:17:35.775Z,988.86
2023-01-18T07:18:35.784Z,988.85
2023-01-18T07:19:35.764Z,988.83
2023-01-18T07:20:35.760Z,988.81
2023-01-18T07:21:35.772Z,988.84
2023-01-18T07:22:35.756Z,988.89
2023-01-18T07:23:35.743Z,988.92
2023-01-18T07:24:35.749Z,988.90
2023-01-18T07:25:35.750Z,988.92
2023-01-18T07:26:35.739Z,988.93
2023-01-18T07:27:35.723Z,988.99
2023-01-18T07:28:35.721Z,988.93
2023-01-18T07:29:35.759Z,988.96
2023-01-18T07:30:35.707Z,988.99
2023-01-18T07:31:35.747Z,989.03
2023-01-18T07:32:35.703Z,989.07
2023-01-18T07:33:35.705Z,989.04
2023-01-18T07:34:35.690Z,989.06
2023-01-18T07:35:35.685Z,989.07
2023-01-18T07:36:35.688Z,989.10
2023-01-18T07:37:35.666Z,989.09
2023-01-18T07:38:35.662Z,989.11
2023-01-18T07:39:35.655Z,989.09
2023-01-18T07:40:35.654Z,989.10
2023-01-18T07:41:35.656Z,989.11
2023-01-18T07:42:35.650Z,989.10
2023-01-18T07:43:35.633Z,989.09
2023-01-18T07:44:35.641Z,989.08
2023-01-18T07:45:35.644Z,989.08
2023-01-18T07:46:35.615Z,989.07
2023-01-18T07:47:35.627Z,989.09
2023-01-18T07:48:38.069Z,989.12
2023-01-18T07:49:35.616Z,989.06
2023-01-18T07:50:35.599Z,989.07
2023-01-18T07:51:35.606Z,989.09
2023-01-18T07:52:35.585Z,989.08
2023-01-18T07:53:35.577Z,989.05
2023-01-18T07:54:35.585Z,989.05
2023-01-18T07:55:35.567Z,989.01
2023-01-18T07:56:35.566Z,989.05
2023-01-18T07:57:35.552Z,988.99
2023-01-18T07:58:35.556Z,988.97
2023-01-18T07:59:35.548Z,988.99
2023-01-18T08:00:35.541Z,988.96
2023-01-18T08:01:35.743Z,988.97
2023-01-18T08:02:35.564Z,989.00
2023-01-18T08:03:35.517Z,989.00
2023-01-18T08:04:35.520Z,989.00
2023-01-18T08:05:35.512Z,989.00
2023-01-18T08:06:35.518Z,989.02
2023-01-18T08:07:35.496Z,989.01
2023-01-18T08:08:35.536Z,989.01
2023-01-18T08:09:35.488Z,989.00
2023-01-18T08:10:35.487Z,989.01
2023-01-18T08:11:35.481Z,988.97
2023-01-18T08:12:35.530Z,988.95
2023-01-18T08:13:35.479Z,988.95
2023-01-18T08:14:35.459Z,988.95
2023-01-18T08:15:35.522Z,988.97
2023-01-18T08:16:35.452Z,988.98
2023-01-18T08:17:35.492Z,988.98
2023-01-18T08:18:35.450Z,989.00
2023-01-18T08:19:35.430Z,988.95
2023-01-18T08:20:35.427Z,988.98
2023-01-18T08:21:35.466Z,988.99
2023-01-18T08:22:35.431Z,989.00
2023-01-18T08:23:35.420Z,989.01
2023-01-18T08:24:35.407Z,988.96
2023-01-18T08:25:35.405Z,988.98
2023-01-18T08:26:35.406Z,989.05
2023-01-18T08:27:35.401Z,989.00
2023-01-18T08:28:35.399Z,989.00
2023-01-18T08:29:35.379Z,989.07
2023-01-18T08:30:35.378Z,989.06
2023-01-18T08:31:35.408Z,989.09
2023-01-18T08:32:35.384Z,989.09
2023-01-18T08:33:35.382Z,989.09
2023-01-18T08:34:35.357Z,989.07
2023-01-18T08:35:35.359Z,989.10
2023-01-18T08:36:35.346Z,989.10
2023-01-18T08:37:35.337Z,989.09
2023-01-18T08:38:35.336Z,989.07
2023-01-18T08:39:35.328Z,989.10
2023-01-18T08:40:35.332Z,989.11
2023-01-18T08:41:35.330Z,989.11
2023-01-18T08:42:35.315Z,989.14
2023-01-18T08:43:35.315Z,989.16
2023-01-18T08:44:35.301Z,989.17
2023-01-18T08:45:35.307Z,989.16
2023-01-18T08:46:35.420Z,989.18
2023-01-18T08:47:35.288Z,989.21
2023-01-18T08:48:35.284Z,989.20
2023-01-18T08:49:35.299Z,989.19
2023-01-18T08:50:35.277Z,989.20
2023-01-18T08:51:35.263Z,989.20
2023-01-18T08:52:35.261Z,989.22
2023-01-18T08:53:35.257Z,989.26
2023-01-18T08:54:35.260Z,989.26
2023-01-18T08:55:35.246Z,989.26
2023-01-18T08:56:35.253Z,989.26
2023-01-18T08:57:35.240Z,989.28
2023-01-18T08:58:35.249Z,989.29
2023-01-18T08:59:35.236Z,989.28
2023-01-18T09:00:35.224Z,989.31
2023-01-18T09:01:35.377Z,989.29
2023-01-18T09:02:35.294Z,989.31
2023-01-18T09:03:35.220Z,989.31
2023-01-18T09:04:35.202Z,989.30
2023-01-18T09:05:35.233Z,989.33
2023-01-18T09:06:35.195Z,989.37
2023-01-18T09:07:35.189Z,989.37
2023-01-18T09:08:35.178Z,989.38
2023-01-18T09:09:35.174Z,989.37
2023-01-18T09:10:35.176Z,989.39
2023-01-18T09:11:35.168Z,989.38
2023-01-18T09:12:35.208Z,989.41
2023-01-18T09:13:35.153Z,989.41
2023-01-18T09:14:35.155Z,989.46
2023-01-18T09:15:35.145Z,989.45
2023-01-18T09:16:35.148Z,989.47
2023-01-18T09:17:35.143Z,989.45
2023-01-18T09:18:35.127Z,989.51
2023-01-18T09:19:35.128Z,989.55
2023-01-18T09:20:35.116Z,989.57
2023-01-18T09:21:35.171Z,989.56
2023-01-18T09:22:35.107Z,989.56
2023-01-18T09:23:35.111Z,989.53
2023-01-18T09:24:35.097Z,989.55
2023-01-18T09:25:35.110Z,989.55
2023-01-18T09:26:35.115Z,989.58
2023-01-18T09:27:35.091Z,989.58
2023-01-18T09:28:35.087Z,989.58
2023-01-18T09:29:35.091Z,989.63
2023-01-18T09:30:35.073Z,989.66
2023-01-18T09:31:35.197Z,989.65
2023-01-18T09:32:35.057Z,989.66
2023-01-18T09:33:38.043Z,989.65
2023-01-18T09:34:35.058Z,989.66
2023-01-18T09:35:35.059Z,989.69
2023-01-18T09:36:35.052Z,989.74
2023-01-18T09:37:35.064Z,989.69
2023-01-18T09:38:35.035Z,989.67
2023-01-18T09:39:50.488Z,989.65
2023-01-18T09:40:35.034Z,989.63
2023-01-18T09:41:35.024Z,989.65
2023-01-18T09:42:35.016Z,989.66
2023-01-18T09:43:35.016Z,989.63
2023-01-18T09:44:35.015Z,989.62
2023-01-18T09:45:35.009Z,989.64
2023-01-18T09:46:35.003Z,989.62
2023-01-18T09:47:34.999Z,989.66
2023-01-18T09:48:34.991Z,989.63
2023-01-18T09:49:34.998Z,989.61
2023-01-18T09:50:34.981Z,989.63
2023-01-18T09:51:34.980Z,989.64
2023-01-18T09:52:34.974Z,989.66
2023-01-18T09:53:34.988Z,989.63
2023-01-18T09:54:34.959Z,989.63
2023-01-18T09:55:34.965Z,989.61
2023-01-18T09:56:34.952Z,989.61
2023-01-18T09:57:34.955Z,989.62
2023-01-18T09:58:34.942Z,989.64
2023-01-18T09:59:34.961Z,989.66
2023-01-18T10:00:34.986Z,989.63
2023-01-18T10:01:35.083Z,989.64
2023-01-18T10:02:34.961Z,989.64
2023-01-18T10:03:34.923Z,989.63
2023-01-18T10:04:34.918Z,989.66
2023-01-18T10:05:34.918Z,989.66
2023-01-18T10:06:34.905Z,989.66
2023-01-18T10:07:34.914Z,989.64
2023-01-18T10:08:34.896Z,989.61
2023-01-18T10:09:35.002Z,989.61
2023-01-18T10:10:34.895Z,989.56
2023-01-18T10:11:34.887Z,989.59
2023-01-18T10:12:34.889Z,989.60
2023-01-18T10:13:34.883Z,989.62
2023-01-18T10:14:34.871Z,989.57
2023-01-18T10:15:34.874Z,989.58
2023-01-18T10:16:34.956Z,989.61
2023-01-18T10:17:34.859Z,989.56
2023-01-18T10:18:34.856Z,989.58
2023-01-18T10:19:34.854Z,989.58
2023-01-18T10:20:34.846Z,989.64
2023-01-18T10:21:34.861Z,989.64
2023-01-18T10:22:34.839Z,989.66
2023-01-18T10:23:34.844Z,989.67
2023-01-18T10:24:34.840Z,989.66
2023-01-18T10:25:34.858Z,989.71
2023-01-18T10:26:34.829Z,989.69
2023-01-18T10:27:34.843Z,989.73
2023-01-18T10:28:34.821Z,989.78
2023-01-18T10:29:35.628Z,989.75
2023-01-18T10:30:34.822Z,989.75
2023-01-18T10:31:34.924Z,989.77
2023-01-18T10:32:34.797Z,989.79
2023-01-18T10:33:34.805Z,989.79
2023-01-18T10:34:34.798Z,989.82
2023-01-18T10:35:34.795Z,989.82
2023-01-18T10:36:34.782Z,989.88
2023-01-18T10:37:34.855Z,989.86
2023-01-18T10:38:34.797Z,989.90
2023-01-18T10:39:34.772Z,989.91
2023-01-18T10:40:34.760Z,989.90
2023-01-18T10:41:34.779Z,989.91
2023-01-18T10:42:34.753Z,989.91
2023-01-18T10:43:34.755Z,989.94
2023-01-18T10:44:34.750Z,989.89
2023-01-18T10:45:34.778Z,989.91
2023-01-18T10:46:34.743Z,989.86
2023-01-18T10:47:34.751Z,989.89
2023-01-18T10:48:34.747Z,989.87
2023-01-18T10:49:34.735Z,989.91
2023-01-18T10:50:34.735Z,989.87
2023-01-18T10:51:34.733Z,989.90
2023-01-18T10:52:34.720Z,989.89
2023-01-18T10:53:34.708Z,989.88
2023-01-18T10:54:34.705Z,989.91
2023-01-18T10:55:34.701Z,989.89
2023-01-18T10:56:34.694Z,989.95
2023-01-18T10:57:34.717Z,989.90
2023-01-18T10:58:34.684Z,989.89
2023-01-18T10:59:34.688Z,989.92
2023-01-18T11:00:34.731Z,989.89
2023-01-18T11:01:34.881Z,989.93
2023-01-18T11:02:34.776Z,989.91
2023-01-18T11:03:34.666Z,989.91
2023-01-18T11:04:34.663Z,989.92
2023-01-18T11:05:34.668Z,989.92
2023-01-18T11:06:34.661Z,989.91
2023-01-18T11:07:34.657Z,989.95
2023-01-18T11:08:34.652Z,989.97
2023-01-18T11:09:34.663Z,989.95
2023-01-18T11:10:34.640Z,989.95
2023-01-18T11:11:34.631Z,989.99
2023-01-18T11:12:34.631Z,989.96
2023-01-18T11:13:34.653Z,989.93
2023-01-18T11:14:34.618Z,989.97
2023-01-18T11:15:34.635Z,989.97
2023-01-18T11:16:34.626Z,990.00
2023-01-18T11:17:34.615Z,989.97
2023-01-18T11:18:34.613Z,989.96
2023-01-18T11:19:34.602Z,990.01
2023-01-18T11:20:34.588Z,989.97
2023-01-18T11:21:34.606Z,990.05
2023-01-18T11:22:34.591Z,990.04
2023-01-18T11:23:34.585Z,990.05
2023-01-18T11:24:34.575Z,990.04
2023-01-18T11:25:34.578Z,990.04
2023-01-18T11:26:34.579Z,990.04
2023-01-18T11:27:34.565Z,990.03
2023-01-18T11:28:34.558Z,990.04
2023-01-18T11:29:34.589Z,989.99
2023-01-18T11:30:34.549Z,990.02
2023-01-18T11:31:34.572Z,989.99
2023-01-18T11:32:34.536Z,989.99
2023-01-18T11:33:34.536Z,989.99
2023-01-18T11:34:34.546Z,990.05
2023-01-18T11:35:34.528Z,990.06
2023-01-18T11:36:34.529Z,990.07
2023-01-18T11:37:34.646Z,990.09
2023-01-18T11:38:34.521Z,990.09
2023-01-18T11:39:34.511Z,990.10
2023-01-18T11:40:34.503Z,990.07
2023-01-18T11:41:34.505Z,990.10
2023-01-18T11:42:34.502Z,990.10
2023-01-18T11:43:34.504Z,990.06
2023-01-18T11:44:34.483Z,990.05
2023-01-18T11:45:34.559Z,990.08
2023-01-18T11:46:34.479Z,990.06
2023-01-18T11:47:34.476Z,990.07
2023-01-18T11:48:34.474Z,990.09
2023-01-18T11:49:34.472Z,990.07
2023-01-18T11:50:34.463Z,990.07
2023-01-18T11:51:34.455Z,990.08
2023-01-18T11:52:34.464Z,990.09
2023-01-18T11:53:34.452Z,990.08
2023-01-18T11:54:34.464Z,990.10
2023-01-18T11:55:34.455Z,990.13
2023-01-18T11:56:34.442Z,990.12
2023-01-18T11:57:34.432Z,990.10
2023-01-18T11:58:34.428Z,990.13
2023-01-18T11:59:34.432Z,990.09
2023-01-18T12:00:34.419Z,990.11
2023-01-18T12:01:34.449Z,990.13
2023-01-18T12:02:34.472Z,990.18
2023-01-18T12:03:34.509Z,990.18
2023-01-18T12:04:34.397Z,990.12
2023-01-18T12:05:34.398Z,990.17
2023-01-18T12:06:34.396Z,990.15
2023-01-18T12:07:34.391Z,990.17
2023-01-18T12:08:34.388Z,990.16
2023-01-18T12:09:34.383Z,990.17
2023-01-18T12:10:34.378Z,990.17
2023-01-18T12:11:34.383Z,990.21
2023-01-18T12:12:34.368Z,990.21
2023-01-18T12:13:34.369Z,990.17
2023-01-18T12:14:34.357Z,990.21
2023-01-18T12:15:34.355Z,990.20
2023-01-18T12:16:34.387Z,990.19
2023-01-18T12:17:34.384Z,990.23
2023-01-18T12:18:34.343Z,990.18
2023-01-18T12:19:34.353Z,990.23
2023-01-18T12:20:34.378Z,990.19
2023-01-18T12:21:34.337Z,990.29
2023-01-18T12:22:34.335Z,990.27
2023-01-18T12:23:34.332Z,990.27
2023-01-18T12:24:34.324Z,990.28
2023-01-18T12:25:34.332Z,990.30
2023-01-18T12:26:34.316Z,990.33
2023-01-18T12:27:34.310Z,990.33
2023-01-18T12:28:34.316Z,990.34